Time;durP1;ratioP1;P1;durP2;ratioP2;P2;SDS_P1;SDS_P2;PMS_P1;PMS_P2;Temp;Humidity;BMP_temperature;BMP_pressure;BME280_temperature;BME280_humidity;BME280_pressure;Samples;Min_cycle;Max_cycle;Signal;HPM_P1;HPM_P2
2023/04/18 00:01:53;;;;;;;10.97;9.73;;;12.50;67.60;;;;;;5035149;28;20817;-71
2023/04/18 00:04:22;;;;;;;14.17;10.13;;;12.50;67.20;;;;;;5034997;28;20466;-72
2023/04/18 00:06:48;;;;;;;12.80;10.43;;;12.50;67.10;;;;;;5036352;28;20482;-71
2023/04/18 00:09:16;;;;;;;15.20;11.10;;;12.50;67.10;;;;;;5045614;28;20479;-71
2023/04/18 00:11:43;;;;;;;12.50;9.77;;;12.40;66.90;;;;;;5023643;28;20960;-72
2023/04/18 00:14:10;;;;;;;11.37;10.17;;;12.40;67.00;;;;;;5015726;28;20475;-71
2023/04/18 00:16:38;;;;;;;11.20;10.10;;;12.40;67.20;;;;;;5016531;28;20482;-72
2023/04/18 00:19:07;;;;;;;12.27;10.27;;;12.40;67.50;;;;;;5017248;28;20454;-72
2023/04/18 00:21:36;;;;;;;9.63;8.33;;;12.30;66.30;;;;;;5016521;28;20458;-71
2023/04/18 00:24:04;;;;;;;10.20;9.20;;;12.30;66.10;;;;;;5016374;28;20475;-71
2023/04/18 00:26:31;;;;;;;10.07;9.13;;;12.20;66.00;;;;;;5016293;28;20471;-72
2023/04/18 00:28:57;;;;;;;11.40;9.13;;;12.20;66.30;;;;;;5016038;28;20447;-71
2023/04/18 00:31:24;;;;;;;13.13;9.50;;;12.20;65.50;;;;;;5015854;28;20468;-72
2023/04/18 00:33:52;;;;;;;11.27;9.40;;;12.20;65.80;;;;;;5015324;28;20447;-72
2023/04/18 00:36:19;;;;;;;10.63;9.30;;;12.20;65.60;;;;;;5016080;28;20827;-72
2023/04/18 00:38:47;;;;;;;17.87;9.17;;;12.10;65.30;;;;;;5015957;28;20451;-72
2023/04/18 00:41:14;;;;;;;13.20;9.10;;;12.10;65.30;;;;;;5015985;28;20474;-72
2023/04/18 00:43:41;;;;;;;13.10;9.80;;;12.10;65.60;;;;;;5015459;28;20609;-72
2023/04/18 00:46:09;;;;;;;11.20;10.00;;;12.10;65.70;;;;;;5016274;28;20471;-72
2023/04/18 00:48:37;;;;;;;10.70;8.73;;;12.10;65.20;;;;;;5016096;28;20451;-72
2023/04/18 00:51:06;;;;;;;14.27;9.07;;;12.10;64.90;;;;;;5015549;28;20514;-72
2023/04/18 00:53:33;;;;;;;19.33;8.90;;;12.00;64.80;;;;;;5016851;28;20542;-71
2023/04/18 00:56:02;;;;;;;12.77;9.37;;;12.00;65.00;;;;;;5016539;28;20483;-71
2023/04/18 00:58:30;;;;;;;9.70;8.63;;;12.00;65.40;;;;;;5016101;28;20451;-71
2023/04/18 01:00:57;;;;;;;9.83;8.23;;;12.00;65.60;;;;;;5015637;28;20455;-71
2023/04/18 01:03:25;;;;;;;12.70;8.40;;;12.00;66.50;;;;;;5016150;28;20458;-71
2023/04/18 01:05:53;;;;;;;10.40;9.40;;;11.90;67.50;;;;;;5015506;28;20463;-71
2023/04/18 01:08:22;;;;;;;11.53;8.70;;;11.90;67.10;;;;;;5016014;28;20464;-71
2023/04/18 01:10:49;;;;;;;11.17;10.00;;;11.90;66.50;;;;;;5014599;28;20542;-71
2023/04/18 01:13:18;;;;;;;9.60;7.63;;;11.90;66.60;;;;;;5015852;28;20447;-72
2023/04/18 01:15:47;;;;;;;9.93;8.90;;;11.80;66.80;;;;;;5015516;28;20447;-72
2023/04/18 01:18:16;;;;;;;9.80;8.40;;;11.80;66.10;;;;;;5014054;28;20447;-71
2023/04/18 01:20:46;;;;;;;11.40;9.83;;;11.80;66.00;;;;;;5015802;28;20822;-71
2023/04/18 01:23:14;;;;;;;9.80;8.80;;;11.80;65.80;;;;;;5015072;28;20921;-71
2023/04/18 01:25:42;;;;;;;9.83;8.60;;;11.70;66.50;;;;;;5016547;28;20443;-72
2023/04/18 01:28:10;;;;;;;9.33;8.40;;;11.70;66.00;;;;;;5017723;28;20470;-71
2023/04/18 01:30:37;;;;;;;11.73;10.50;;;11.70;66.10;;;;;;5019879;28;20490;-71
2023/04/18 01:33:05;;;;;;;10.07;8.73;;;11.70;66.30;;;;;;5020958;28;20468;-71
2023/04/18 01:35:32;;;;;;;10.70;9.00;;;11.60;66.30;;;;;;5021899;28;20494;-71
2023/04/18 01:38:00;;;;;;;11.50;9.27;;;11.60;66.60;;;;;;5023599;28;20547;-71
2023/04/18 01:40:28;;;;;;;10.57;8.67;;;11.60;66.50;;;;;;5034078;28;20419;-77
2023/04/18 01:42:56;;;;;;;10.10;9.07;;;11.50;66.60;;;;;;5031414;28;20440;-72
2023/04/18 01:45:24;;;;;;;10.00;8.93;;;11.50;67.00;;;;;;5018266;28;20458;-71
2023/04/18 01:47:50;;;;;;;14.50;9.03;;;11.50;67.40;;;;;;5015019;28;20467;-72
2023/04/18 01:50:17;;;;;;;11.47;9.67;;;11.40;67.60;;;;;;5014258;28;20475;-72
2023/04/18 01:52:44;;;;;;;11.30;8.93;;;11.40;67.90;;;;;;5014432;28;20452;-71
2023/04/18 01:55:12;;;;;;;10.97;8.70;;;11.30;68.20;;;;;;5015194;28;20455;-72
2023/04/18 01:57:38;;;;;;;10.50;9.00;;;11.30;68.70;;;;;;5014964;28;20467;-72
2023/04/18 02:00:09;;;;;;;10.40;9.20;;;11.20;69.20;;;;;;5016254;28;20860;-71
2023/04/18 02:02:36;;;;;;;11.03;9.67;;;11.20;69.90;;;;;;5016281;28;20490;-71
2023/04/18 02:05:03;;;;;;;16.60;10.43;;;11.20;70.40;;;;;;5017236;28;20470;-71
2023/04/18 02:07:30;;;;;;;14.10;9.47;;;11.20;70.60;;;;;;5015309;28;20860;-71
2023/04/18 02:09:57;;;;;;;11.27;9.60;;;11.10;70.60;;;;;;5014160;28;21102;-71
2023/04/18 02:12:24;;;;;;;11.80;9.40;;;11.10;70.90;;;;;;5014387;28;20452;-71
2023/04/18 02:14:53;;;;;;;11.00;9.90;;;11.00;71.00;;;;;;5013133;28;20522;-71
2023/04/18 02:17:23;;;;;;;11.30;10.20;;;11.00;71.60;;;;;;5014347;28;20513;-71
2023/04/18 02:19:50;;;;;;;11.70;10.50;;;10.90;71.80;;;;;;5012819;28;20453;-71
2023/04/18 02:22:17;;;;;;;12.13;10.33;;;10.90;72.10;;;;;;5014220;28;20522;-71
2023/04/18 02:24:44;;;;;;;10.73;9.50;;;10.90;72.60;;;;;;5012930;28;20494;-71
2023/04/18 02:27:14;;;;;;;11.80;10.60;;;10.90;73.00;;;;;;5014192;28;20480;-71
2023/04/18 02:29:41;;;;;;;11.73;10.53;;;10.80;73.10;;;;;;5012981;28;20506;-71
2023/04/18 02:32:07;;;;;;;11.97;10.00;;;10.80;73.50;;;;;;5014329;28;20462;-72
2023/04/18 02:34:36;;;;;;;11.40;10.03;;;10.80;73.90;;;;;;5013914;28;20819;-72
2023/04/18 02:37:03;;;;;;;14.50;9.70;;;10.80;74.50;;;;;;5013768;28;20479;-72
2023/04/18 02:39:30;;;;;;;12.67;10.30;;;10.70;74.60;;;;;;5012800;28;20571;-71
2023/04/18 02:41:57;;;;;;;12.03;10.83;;;10.70;74.90;;;;;;5012806;28;20591;-72
2023/04/18 02:44:24;;;;;;;11.57;10.40;;;10.70;75.40;;;;;;5013957;28;20538;-72
2023/04/18 02:46:51;;;;;;;11.30;9.93;;;10.60;75.70;;;;;;5013925;28;20479;-72
2023/04/18 02:49:18;;;;;;;11.47;10.10;;;10.60;76.20;;;;;;5012338;28;20520;-72
2023/04/18 02:51:46;;;;;;;11.73;10.53;;;10.60;76.30;;;;;;5014209;28;20494;-72
2023/04/18 02:54:13;;;;;;;12.50;10.33;;;10.50;76.50;;;;;;5013797;28;20443;-71
2023/04/18 02:56:41;;;;;;;11.30;9.57;;;10.50;77.10;;;;;;5014900;28;20479;-72
2023/04/18 02:59:08;;;;;;;11.37;10.20;;;10.50;77.40;;;;;;5017997;28;20577;-71
2023/04/18 03:01:35;;;;;;;12.70;10.30;;;10.50;77.70;;;;;;5017536;28;20451;-71
2023/04/18 03:04:02;;;;;;;12.10;10.00;;;10.40;78.00;;;;;;5017739;28;20522;-71
2023/04/18 03:06:30;;;;;;;11.67;10.30;;;10.40;78.40;;;;;;5017766;28;20467;-71
2023/04/18 03:08:58;;;;;;;14.20;10.43;;;10.30;78.70;;;;;;5016415;28;20483;-71
2023/04/18 03:11:25;;;;;;;14.00;10.20;;;10.30;79.10;;;;;;5017871;28;20487;-71
2023/04/18 03:13:53;;;;;;;11.30;10.17;;;10.30;79.60;;;;;;5019922;28;20461;-71
2023/04/18 03:16:20;;;;;;;13.77;10.00;;;10.20;79.80;;;;;;5025048;28;20489;-72
2023/04/18 03:18:47;;;;;;;12.27;10.00;;;10.20;80.10;;;;;;5017593;28;20450;-72
2023/04/18 03:21:14;;;;;;;11.70;10.50;;;10.20;80.50;;;;;;5017548;28;20937;-72
2023/04/18 03:23:41;;;;;;;12.03;10.80;;;10.20;80.60;;;;;;5016322;28;20447;-71
2023/04/18 03:26:11;;;;;;;11.03;9.77;;;10.10;80.70;;;;;;5015947;28;20506;-71
2023/04/18 03:28:38;;;;;;;11.57;10.37;;;10.10;81.20;;;;;;5017576;28;20448;-71
2023/04/18 03:31:05;;;;;;;11.83;10.33;;;10.00;81.50;;;;;;5015972;28;20567;-72
2023/04/18 03:33:32;;;;;;;10.30;9.30;;;10.00;81.60;;;;;;5016398;28;20458;-72
2023/04/18 03:35:59;;;;;;;13.30;10.03;;;10.00;81.90;;;;;;5016969;28;20478;-72
2023/04/18 03:38:26;;;;;;;13.97;10.53;;;9.90;83.20;;;;;;5017345;28;20482;-71
2023/04/18 03:40:53;;;;;;;10.57;9.40;;;9.90;83.40;;;;;;5017828;28;20456;-71
2023/04/18 03:43:22;;;;;;;14.00;9.70;;;9.90;83.60;;;;;;5017887;28;20486;-71
2023/04/18 03:45:49;;;;;;;11.93;10.63;;;9.80;83.70;;;;;;5018432;28;20820;-71
2023/04/18 03:48:17;;;;;;;13.20;10.33;;;9.80;84.00;;;;;;5020625;28;20814;-71
2023/04/18 03:50:44;;;;;;;11.40;10.20;;;9.80;84.20;;;;;;5021353;28;20499;-71
2023/04/18 03:53:11;;;;;;;11.77;10.10;;;9.70;84.60;;;;;;5022398;28;20443;-71
2023/04/18 03:55:38;;;;;;;12.90;10.73;;;9.70;84.90;;;;;;5027245;28;20447;-71
2023/04/18 03:58:05;;;;;;;11.57;10.30;;;9.70;85.20;;;;;;5038123;28;20451;-71
2023/04/18 04:00:34;;;;;;;12.27;10.60;;;9.60;85.30;;;;;;5022132;28;20440;-71
2023/04/18 04:03:01;;;;;;;10.97;9.67;;;9.60;85.50;;;;;;5016493;28;20451;-71
2023/04/18 04:05:28;;;;;;;11.87;10.13;;;9.60;85.60;;;;;;5016448;28;20462;-71
2023/04/18 04:07:55;;;;;;;11.73;10.50;;;9.60;85.80;;;;;;5016156;28;20476;-71
2023/04/18 04:10:23;;;;;;;11.77;9.97;;;9.50;85.90;;;;;;5016687;28;20518;-71
2023/04/18 04:12:50;;;;;;;11.40;10.30;;;9.60;86.10;;;;;;5015518;28;20458;-71
2023/04/18 04:15:17;;;;;;;12.10;10.20;;;9.50;86.20;;;;;;5018226;28;20451;-70
2023/04/18 04:17:45;;;;;;;10.43;9.43;;;9.50;86.30;;;;;;5018468;28;20471;-72
2023/04/18 04:20:13;;;;;;;10.27;9.27;;;9.50;86.50;;;;;;5018216;28;20973;-71
2023/04/18 04:22:40;;;;;;;11.00;9.80;;;9.50;87.60;;;;;;5017892;28;20541;-72
2023/04/18 04:25:09;;;;;;;11.27;10.13;;;9.50;87.10;;;;;;5016796;28;20455;-71
2023/04/18 04:27:37;;;;;;;11.43;10.23;;;9.40;86.90;;;;;;5016187;28;20467;-72
2023/04/18 04:30:06;;;;;;;10.07;9.07;;;9.40;86.90;;;;;;5016116;28;20508;-71
2023/04/18 04:32:32;;;;;;;13.67;9.97;;;9.40;87.00;;;;;;5016626;28;20452;-71
2023/04/18 04:35:01;;;;;;;10.60;9.50;;;9.40;87.20;;;;;;5016424;28;20455;-71
2023/04/18 04:37:28;;;;;;;12.53;10.87;;;9.40;87.10;;;;;;5016140;28;20476;-71
2023/04/18 04:39:55;;;;;;;11.43;10.33;;;9.30;87.00;;;;;;5016345;28;20814;-71
2023/04/18 04:42:24;;;;;;;10.90;9.57;;;9.30;87.10;;;;;;5016750;28;20447;-71
2023/04/18 04:44:52;;;;;;;12.70;11.17;;;9.30;87.10;;;;;;5016997;28;20456;-71
2023/04/18 04:47:19;;;;;;;10.47;9.37;;;9.30;87.30;;;;;;5024468;28;20470;-71
2023/04/18 04:49:46;;;;;;;11.20;9.97;;;9.20;87.50;;;;;;5022765;28;20482;-71
2023/04/18 04:52:14;;;;;;;12.17;10.97;;;9.20;87.30;;;;;;5019515;28;20574;-71
2023/04/18 04:54:43;;;;;;;11.17;10.07;;;9.20;87.30;;;;;;5015951;28;20451;-71
2023/04/18 04:57:10;;;;;;;15.90;10.37;;;9.20;87.60;;;;;;5015572;28;20929;-71
2023/04/18 04:59:37;;;;;;;13.37;9.70;;;9.10;87.80;;;;;;5015123;28;21027;-71
2023/04/18 05:02:06;;;;;;;11.33;10.10;;;9.10;87.80;;;;;;5015613;28;20817;-71
2023/04/18 05:04:33;;;;;;;9.70;8.70;;;9.10;88.00;;;;;;5015651;28;20497;-71
2023/04/18 05:07:00;;;;;;;11.40;9.57;;;9.10;88.00;;;;;;5015323;28;20471;-73
2023/04/18 05:09:28;;;;;;;10.47;9.37;;;9.10;88.10;;;;;;5015345;28;20805;-73
2023/04/18 05:11:55;;;;;;;11.40;10.00;;;9.10;88.00;;;;;;5015318;28;20487;-73
2023/04/18 05:14:24;;;;;;;13.07;8.97;;;9.00;87.60;;;;;;5015499;28;20465;-73
2023/04/18 05:16:50;;;;;;;10.67;9.57;;;9.00;87.60;;;;;;5015240;28;20482;-71
2023/04/18 05:19:17;;;;;;;10.57;9.60;;;9.00;87.90;;;;;;5014429;28;20450;-71
2023/04/18 05:21:44;;;;;;;11.30;9.37;;;9.00;88.10;;;;;;5013410;28;20472;-71
2023/04/18 05:24:11;;;;;;;12.90;9.97;;;9.00;88.50;;;;;;5015850;28;21022;-71
2023/04/18 05:26:40;;;;;;;15.37;11.50;;;9.00;89.00;;;;;;5013803;28;20474;-71
2023/04/18 05:29:07;;;;;;;13.10;11.70;;;9.00;89.70;;;;;;5014751;28;20855;-71
2023/04/18 05:31:34;;;;;;;11.97;10.87;;;9.00;90.20;;;;;;5014914;28;20485;-71
2023/04/18 05:34:01;;;;;;;12.07;10.87;;;9.10;90.60;;;;;;5014923;28;20454;-71
2023/04/18 05:36:28;;;;;;;13.50;12.00;;;9.10;91.30;;;;;;5014698;28;20486;-72
2023/04/18 05:38:55;;;;;;;15.50;10.47;;;9.20;91.90;;;;;;5015329;28;20447;-71
2023/04/18 05:41:30;;;;;;;13.20;10.27;;;9.20;92.50;;;;;;5132420;27;20527;-54
2023/04/18 05:43:57;;;;;;;12.40;11.10;;;9.30;92.90;;;;;;5130684;27;20520;-55
2023/04/18 05:46:23;;;;;;;14.73;11.90;;;9.40;93.30;;;;;;5131963;27;20445;-54
2023/04/18 05:48:50;;;;;;;12.67;11.37;;;9.40;93.60;;;;;;5131765;27;20446;-54
2023/04/18 05:51:17;;;;;;;11.83;10.63;;;9.60;93.70;;;;;;5131231;27;20476;-56
2023/04/18 05:53:43;;;;;;;12.20;11.00;;;9.70;93.80;;;;;;5131239;27;20812;-55
2023/04/18 05:56:10;;;;;;;11.63;10.43;;;9.80;93.90;;;;;;5131487;27;20454;-56
2023/04/18 05:58:38;;;;;;;11.77;9.90;;;9.80;93.90;;;;;;5131549;27;20449;-55
2023/04/18 06:01:06;;;;;;;12.80;11.10;;;9.90;93.90;;;;;;5131205;27;20478;-54
2023/04/18 06:03:33;;;;;;;12.60;11.30;;;10.00;93.30;;;;;;5130908;27;20453;-54
2023/04/18 06:06:00;;;;;;;13.47;12.17;;;10.10;93.00;;;;;;5131316;27;20453;-55
2023/04/18 06:08:26;;;;;;;12.60;11.07;;;10.10;93.50;;;;;;5131226;27;20445;-54
2023/04/18 06:10:53;;;;;;;13.27;11.87;;;10.20;93.20;;;;;;5124802;27;20975;-54
2023/04/18 06:13:20;;;;;;;13.43;12.07;;;10.30;93.20;;;;;;5110565;28;20470;-54
2023/04/18 06:15:48;;;;;;;12.27;10.93;;;10.40;93.10;;;;;;5111290;28;20458;-55
2023/04/18 06:18:14;;;;;;;13.07;11.73;;;10.50;93.00;;;;;;5110932;28;20450;-55
2023/04/18 06:20:42;;;;;;;12.97;10.83;;;10.50;92.90;;;;;;5110596;28;20485;-56
2023/04/18 06:23:09;;;;;;;11.90;10.70;;;10.60;92.90;;;;;;5111745;28;20500;-55
2023/04/18 06:25:36;;;;;;;12.33;11.07;;;10.70;92.80;;;;;;5112796;28;20451;-55
2023/04/18 06:28:03;;;;;;;11.40;10.20;;;10.70;92.70;;;;;;5111523;28;20440;-54
2023/04/18 06:30:30;;;;;;;17.00;12.40;;;10.80;92.70;;;;;;5110760;28;20446;-55
2023/04/18 06:32:58;;;;;;;11.73;10.57;;;10.80;92.70;;;;;;5110813;28;20463;-54
2023/04/18 06:35:24;;;;;;;11.97;10.70;;;10.90;92.60;;;;;;5110452;28;20454;-55
2023/04/18 06:37:51;;;;;;;12.00;10.80;;;10.90;92.40;;;;;;5110216;28;20553;-54
2023/04/18 06:40:18;;;;;;;14.60;13.10;;;11.00;92.30;;;;;;5110078;28;20864;-55
2023/04/18 06:42:45;;;;;;;11.83;10.63;;;11.00;92.30;;;;;;5110085;28;20869;-54
2023/04/18 06:45:12;;;;;;;15.50;12.80;;;11.10;92.20;;;;;;5110309;28;20453;-54
2023/04/18 06:47:40;;;;;;;13.83;12.40;;;11.10;92.30;;;;;;5110064;28;20454;-55
2023/04/18 06:50:09;;;;;;;14.00;12.57;;;11.20;92.30;;;;;;5110232;28;20503;-54
2023/04/18 06:52:39;;;;;;;12.57;11.27;;;11.30;92.00;;;;;;5097766;28;20495;-54
2023/04/18 06:55:07;;;;;;;13.50;12.10;;;11.40;91.70;;;;;;5096050;28;20451;-55
2023/04/18 06:57:34;;;;;;;13.93;12.53;;;11.60;91.40;;;;;;5096231;28;20447;-54
2023/04/18 07:00:01;;;;;;;13.23;11.93;;;11.80;91.00;;;;;;5096166;28;20484;-55
2023/04/18 07:02:28;;;;;;;14.13;12.73;;;12.10;90.50;;;;;;5096301;28;20463;-54
2023/04/18 07:04:54;;;;;;;13.00;11.67;;;12.30;89.70;;;;;;5095970;28;20933;-55
2023/04/18 07:07:23;;;;;;;13.20;11.40;;;12.60;88.00;;;;;;5095897;28;20945;-54
2023/04/18 07:09:51;;;;;;;13.83;11.67;;;12.70;83.60;;;;;;5097137;28;20441;-55
2023/04/18 07:12:18;;;;;;;11.40;10.20;;;12.70;82.70;;;;;;5096114;28;20533;-54
2023/04/18 07:14:44;;;;;;;14.17;11.00;;;12.80;81.90;;;;;;5096014;28;20440;-54
2023/04/18 07:17:11;;;;;;;11.53;10.37;;;12.90;81.40;;;;;;5096079;28;20439;-55
2023/04/18 07:19:38;;;;;;;12.20;10.93;;;13.00;81.40;;;;;;5095783;28;20448;-56
2023/04/18 07:22:05;;;;;;;16.03;11.23;;;13.10;81.00;;;;;;5095931;28;20478;-54
2023/04/18 07:24:33;;;;;;;13.27;10.73;;;13.20;80.30;;;;;;5095824;28;20448;-55
2023/04/18 07:27:00;;;;;;;12.93;11.43;;;13.20;79.50;;;;;;5096361;28;20538;-54
2023/04/18 07:29:26;;;;;;;12.73;10.60;;;13.30;79.00;;;;;;5096010;28;20531;-55
2023/04/18 07:31:53;;;;;;;12.20;10.97;;;13.40;78.10;;;;;;5095609;28;20466;-54
2023/04/18 07:34:20;;;;;;;14.37;11.00;;;13.50;77.10;;;;;;5095284;28;20444;-56
2023/04/18 07:36:47;;;;;;;11.00;9.87;;;13.50;77.00;;;;;;5095208;28;20937;-54
2023/04/18 07:39:14;;;;;;;11.60;10.37;;;13.50;77.10;;;;;;5095393;28;20448;-56
2023/04/18 07:41:42;;;;;;;11.53;9.70;;;13.60;77.10;;;;;;5095378;28;20487;-55
2023/04/18 07:44:09;;;;;;;10.70;9.03;;;13.70;76.80;;;;;;5096202;28;20475;-55
2023/04/18 07:46:36;;;;;;;11.90;9.80;;;13.80;76.30;;;;;;5095331;28;20440;-54
2023/04/18 07:49:03;;;;;;;12.93;9.10;;;13.90;76.30;;;;;;5094963;28;20936;-54
2023/04/18 07:51:31;;;;;;;11.27;8.33;;;14.00;74.10;;;;;;5095202;28;20468;-55
2023/04/18 07:53:58;;;;;;;10.43;8.37;;;13.90;72.60;;;;;;5095408;28;20487;-56
2023/04/18 07:56:25;;;;;;;7.50;6.80;;;13.90;72.50;;;;;;5095197;28;20487;-56
2023/04/18 07:58:53;;;;;;;9.93;7.23;;;14.00;72.20;;;;;;5095008;28;20478;-55
2023/04/18 08:01:23;;;;;;;7.90;7.03;;;14.10;71.40;;;;;;5095018;28;20480;-55
2023/04/18 08:03:50;;;;;;;7.17;6.47;;;14.20;70.10;;;;;;5093674;28;20961;-56
2023/04/18 08:06:17;;;;;;;7.40;6.70;;;14.30;69.50;;;;;;5094590;28;20447;-55
2023/04/18 08:08:43;;;;;;;7.60;6.30;;;14.50;70.40;;;;;;5095001;28;20543;-56
2023/04/18 08:11:10;;;;;;;6.50;5.60;;;14.70;70.00;;;;;;5094695;28;20443;-55
2023/04/18 08:13:37;;;;;;;7.97;6.27;;;14.70;68.70;;;;;;5094831;28;20513;-56
2023/04/18 08:16:05;;;;;;;7.40;5.80;;;14.80;67.70;;;;;;5094399;28;20814;-55
2023/04/18 08:18:32;;;;;;;6.60;6.00;;;14.90;66.60;;;;;;5094775;28;20451;-56
2023/04/18 08:20:58;;;;;;;6.77;6.17;;;15.00;67.20;;;;;;5094565;28;20524;-55
2023/04/18 08:23:25;;;;;;;7.70;6.60;;;15.20;67.30;;;;;;5094538;28;20521;-55
2023/04/18 08:25:52;;;;;;;7.13;6.43;;;15.30;66.50;;;;;;5094598;28;20451;-56
2023/04/18 08:28:18;;;;;;;7.93;6.73;;;15.40;65.90;;;;;;5094105;28;20452;-55
2023/04/18 08:30:47;;;;;;;6.70;6.10;;;15.60;66.40;;;;;;5094297;28;20937;-56
2023/04/18 08:33:15;;;;;;;6.20;5.70;;;15.80;65.20;;;;;;5094380;28;20459;-55
2023/04/18 08:35:42;;;;;;;6.90;6.20;;;15.80;63.50;;;;;;5094421;28;20452;-56
2023/04/18 08:38:09;;;;;;;7.20;6.60;;;15.90;63.50;;;;;;5094436;28;20444;-55
2023/04/18 08:40:36;;;;;;;7.63;6.13;;;16.00;63.90;;;;;;5093832;28;20571;-56
2023/04/18 08:43:08;;;;;;;8.63;5.93;;;16.00;64.10;;;;;;5094197;28;20471;-56
2023/04/18 08:45:35;;;;;;;8.17;7.33;;;16.20;63.00;;;;;;5094243;28;20485;-55
2023/04/18 08:48:02;;;;;;;7.30;6.60;;;16.30;62.40;;;;;;5094151;28;20479;-56
2023/04/18 08:50:30;;;;;;;7.23;6.50;;;16.50;61.60;;;;;;5094091;28;20561;-55
2023/04/18 08:52:59;;;;;;;7.30;6.60;;;16.70;61.30;;;;;;5093763;28;20837;-55
2023/04/18 08:55:26;;;;;;;7.87;7.17;;;16.80;60.50;;;;;;5094153;28;20844;-56
2023/04/18 08:57:54;;;;;;;9.23;7.77;;;16.90;60.40;;;;;;5094104;28;20455;-56
2023/04/18 09:00:22;;;;;;;9.87;7.10;;;17.00;59.70;;;;;;5093800;28;20448;-55
2023/04/18 09:02:53;;;;;;;8.07;7.37;;;17.10;59.30;;;;;;5093783;28;20507;-54
2023/04/18 09:05:21;;;;;;;7.07;6.47;;;17.20;59.20;;;;;;5093961;28;20435;-56
2023/04/18 09:07:51;;;;;;;8.10;7.03;;;17.30;59.00;;;;;;5094072;28;20451;-56
2023/04/18 09:10:27;;;;;;;9.23;7.10;;;17.30;58.00;;;;;;5094037;28;20531;-54
2023/04/18 09:12:55;;;;;;;7.97;7.27;;;17.40;57.60;;;;;;5093984;28;20496;-55
2023/04/18 09:15:25;;;;;;;8.20;7.20;;;17.40;57.40;;;;;;5093676;28;20448;-56
2023/04/18 09:17:54;;;;;;;7.90;7.20;;;17.40;57.10;;;;;;5094203;28;20517;-56
2023/04/18 09:20:36;;;;;;;7.97;7.30;;;17.50;57.20;;;;;;5093815;28;20448;-56
2023/04/18 09:23:09;;;;;;;7.20;6.60;;;17.40;56.50;;;;;;5116218;28;20512;-55
2023/04/18 09:25:38;;;;;;;7.53;6.83;;;17.40;56.70;;;;;;5116458;28;20423;-55
2023/04/18 09:28:21;;;;;;;9.53;8.67;;;17.50;57.00;;;;;;5114936;28;20451;-56
2023/04/18 09:30:50;;;;;;;8.53;7.83;;;17.50;57.00;;;;;;5114519;28;20424;-56
2023/04/18 09:33:16;;;;;;;8.97;7.20;;;17.60;56.50;;;;;;5114177;28;20475;-55
2023/04/18 09:35:43;;;;;;;8.40;7.37;;;17.60;56.40;;;;;;5113622;28;20857;-54
2023/04/18 09:38:11;;;;;;;9.83;8.93;;;17.60;56.30;;;;;;5113986;28;20451;-56
2023/04/18 09:40:38;;;;;;;8.47;7.67;;;17.50;56.00;;;;;;5113513;28;20482;-56
2023/04/18 09:43:18;;;;;;;7.77;7.07;;;17.40;56.00;;;;;;5113778;28;20467;-56
2023/04/18 09:45:46;;;;;;;8.63;7.80;;;17.30;56.70;;;;;;5113609;28;20522;-56
2023/04/18 09:48:13;;;;;;;8.20;7.40;;;17.40;57.20;;;;;;5113867;28;20503;-56
2023/04/18 09:50:41;;;;;;;8.43;7.00;;;17.40;57.40;;;;;;5113308;28;21012;-55
2023/04/18 09:53:08;;;;;;;8.97;8.20;;;17.40;57.40;;;;;;5113678;28;20872;-54
2023/04/18 09:55:38;;;;;;;9.07;8.20;;;17.40;56.80;;;;;;5113658;28;20504;-56
2023/04/18 09:58:07;;;;;;;9.20;8.30;;;17.30;57.20;;;;;;5113663;28;20434;-56
2023/04/18 10:00:35;;;;;;;9.93;8.90;;;17.30;57.00;;;;;;5113478;28;20450;-54
2023/04/18 10:03:06;;;;;;;9.07;8.17;;;17.20;57.20;;;;;;5113688;28;20465;-55
2023/04/18 10:05:35;;;;;;;8.37;7.60;;;17.20;57.70;;;;;;5113729;28;20496;-55
2023/04/18 10:08:02;;;;;;;9.27;8.30;;;17.20;57.90;;;;;;5113321;28;20538;-54
2023/04/18 10:10:29;;;;;;;10.13;8.90;;;17.20;57.60;;;;;;5113572;28;20450;-55
2023/04/18 10:12:58;;;;;;;9.63;8.73;;;17.20;57.70;;;;;;5113514;28;20473;-55
2023/04/18 10:15:27;;;;;;;8.30;7.60;;;17.20;57.90;;;;;;5113620;28;20447;-56
2023/04/18 10:17:56;;;;;;;8.83;8.03;;;17.30;57.80;;;;;;5113064;28;20447;-55
2023/04/18 10:20:24;;;;;;;11.97;8.97;;;17.50;57.50;;;;;;5113276;28;20795;-54
2023/04/18 10:22:52;;;;;;;9.27;8.47;;;17.70;57.10;;;;;;5113304;28;20853;-55
2023/04/18 10:25:52;;;;;;;10.00;8.67;;;18.00;56.40;;;;;;5113502;28;20447;-55
2023/04/18 10:28:20;;;;;;;10.40;8.93;;;18.20;56.10;;;;;;5117224;28;20439;-56
2023/04/18 10:31:02;;;;;;;13.07;9.57;;;18.40;55.70;;;;;;5117165;28;20446;-55
2023/04/18 10:33:35;;;;;;;9.77;8.90;;;18.60;55.70;;;;;;5117310;28;20462;-55
2023/04/18 10:36:15;;;;;;;8.57;7.87;;;18.70;55.20;;;;;;5117220;28;20433;-56
2023/04/18 10:38:46;;;;;;;9.67;8.77;;;18.90;54.30;;;;;;5117033;28;20514;-54
2023/04/18 10:41:21;;;;;;;10.47;9.37;;;19.00;54.20;;;;;;5116590;28;20489;-54
2023/04/18 10:44:17;;;;;;;10.10;9.20;;;19.00;53.60;;;;;;5117073;28;20438;-56
2023/04/18 10:47:22;;;;;;;10.20;9.20;;;19.00;53.60;;;;;;5116752;28;20427;-55
2023/04/18 10:49:57;;;;;;;11.13;10.00;;;18.90;54.10;;;;;;5116913;28;20427;-55
2023/04/18 10:52:25;;;;;;;11.17;10.07;;;18.90;54.20;;;;;;5116699;28;20469;-55
2023/04/18 10:54:54;;;;;;;9.83;8.93;;;19.10;54.30;;;;;;5116784;28;20529;-56
2023/04/18 10:57:21;;;;;;;9.80;8.90;;;19.40;54.30;;;;;;5116287;28;20834;-55
2023/04/18 10:59:50;;;;;;;11.43;9.57;;;20.10;53.60;;;;;;5116422;28;20939;-56
2023/04/18 11:02:23;;;;;;;10.83;9.83;;;20.40;51.70;;;;;;5116490;28;20489;-55
2023/04/18 11:04:51;;;;;;;12.87;8.93;;;20.50;50.60;;;;;;5116637;28;20434;-56
2023/04/18 11:07:18;;;;;;;9.63;8.73;;;20.60;50.80;;;;;;5116505;28;20518;-55
2023/04/18 11:09:52;;;;;;;10.73;9.73;;;20.60;50.50;;;;;;5116252;28;20446;-56
2023/04/18 11:12:19;;;;;;;11.43;10.43;;;20.50;50.30;;;;;;5116338;28;20467;-55
2023/04/18 11:14:50;;;;;;;10.80;9.70;;;20.20;50.90;;;;;;5115983;28;20959;-55
2023/04/18 11:17:22;;;;;;;9.57;8.73;;;20.30;51.30;;;;;;5116875;28;20427;-56
2023/04/18 11:19:50;;;;;;;10.33;9.33;;;20.60;51.60;;;;;;5116289;28;20434;-55
2023/04/18 11:22:17;;;;;;;11.50;10.40;;;20.90;50.80;;;;;;5116014;28;20483;-55
2023/04/18 11:24:44;;;;;;;10.93;9.83;;;21.00;49.90;;;;;;5116225;27;20446;-56
2023/04/18 11:27:12;;;;;;;10.30;9.40;;;20.90;49.10;;;;;;5115833;28;20931;-56
2023/04/18 11:29:39;;;;;;;11.30;10.10;;;20.90;49.60;;;;;;5116008;28;20443;-55
2023/04/18 11:32:09;;;;;;;12.40;9.83;;;20.70;49.80;;;;;;5115688;28;20463;-55
2023/04/18 11:34:35;;;;;;;11.70;10.57;;;20.50;50.20;;;;;;5115755;28;20947;-56
2023/04/18 11:37:06;;;;;;;12.70;10.27;;;20.30;50.60;;;;;;5115841;28;20450;-55
2023/04/18 11:39:34;;;;;;;12.23;11.03;;;20.40;51.60;;;;;;5115782;28;20465;-56
2023/04/18 11:42:01;;;;;;;10.67;9.60;;;21.10;51.90;;;;;;5115714;28;20493;-55
2023/04/18 11:44:28;;;;;;;10.30;9.30;;;21.90;50.00;;;;;;5115476;28;20447;-56
2023/04/18 11:46:55;;;;;;;11.10;10.10;;;22.30;48.80;;;;;;5115388;28;20940;-55
2023/04/18 11:49:27;;;;;;;12.70;10.80;;;22.40;47.30;;;;;;5115724;28;20484;-55
2023/04/18 11:51:54;;;;;;;11.57;10.67;;;22.30;47.40;;;;;;5115629;28;20473;-55
2023/04/18 11:54:37;;;;;;;11.30;10.20;;;22.00;46.90;;;;;;5115711;28;20481;-57
2023/04/18 11:57:04;;;;;;;10.37;9.10;;;22.20;48.00;;;;;;5115552;28;20871;-55
2023/04/18 11:59:32;;;;;;;10.43;9.43;;;22.80;47.40;;;;;;5115473;28;20445;-56
2023/04/18 12:02:00;;;;;;;10.53;9.63;;;23.10;45.00;;;;;;5115893;28;20847;-55
2023/04/18 12:04:28;;;;;;;9.80;9.00;;;23.40;45.50;;;;;;5115460;28;20816;-56
2023/04/18 12:07:14;;;;;;;10.00;9.10;;;24.10;45.40;;;;;;5114903;28;20821;-56
2023/04/18 12:09:41;;;;;;;9.40;8.50;;;25.10;43.10;;;;;;5115080;28;20845;-57
2023/04/18 12:12:08;;;;;;;11.30;10.20;;;26.50;41.70;;;;;;5099016;28;20479;-57
2023/04/18 12:14:35;;;;;;;10.87;9.87;;;27.70;39.20;;;;;;5094671;28;20953;-56
2023/04/18 12:17:03;;;;;;;9.57;8.77;;;29.10;35.20;;;;;;5096651;28;20487;-57
2023/04/18 12:19:33;;;;;;;9.57;8.57;;;30.40;32.30;;;;;;5096647;28;20479;-56
2023/04/18 12:22:01;;;;;;;10.27;9.37;;;31.10;29.90;;;;;;5095128;28;20560;-57
2023/04/18 12:24:28;;;;;;;11.33;10.43;;;31.60;29.10;;;;;;5095366;28;20537;-57
2023/04/18 12:26:56;;;;;;;10.30;9.40;;;31.50;27.40;;;;;;5094870;28;20454;-57
2023/04/18 12:29:23;;;;;;;10.90;10.00;;;31.10;28.40;;;;;;5095210;28;21013;-57
2023/04/18 12:31:49;;;;;;;9.70;8.90;;;31.20;28.30;;;;;;5094612;28;20562;-56
2023/04/18 12:34:16;;;;;;;9.50;8.80;;;31.50;28.60;;;;;;5094520;28;20455;-56
2023/04/18 12:36:44;;;;;;;9.70;8.93;;;32.20;27.90;;;;;;5094436;28;20976;-57
2023/04/18 12:39:11;;;;;;;9.60;8.27;;;32.70;26.40;;;;;;5094467;28;20439;-57
2023/04/18 12:41:38;;;;;;;10.57;9.77;;;33.10;26.30;;;;;;5094306;28;20479;-57
2023/04/18 12:44:05;;;;;;;9.30;8.60;;;33.60;25.70;;;;;;5093783;28;20967;-57